Time;durP1;ratioP1;P1;durP2;ratioP2;P2;SDS_P1;SDS_P2;PMS_P1;PMS_P2;Temp;Humidity;BMP_temperature;BMP_pressure;BME280_temperature;BME280_humidity;BME280_pressure;Samples;Min_cycle;Max_cycle;Signal;HPM_P1;HPM_P2
2022/03/07 00:00:36;;;;;;;20.45;9.20;;;0.00;99.90;;;;;;5025849;28;20028;-69
2022/03/07 00:03:03;;;;;;;19.58;8.73;;;-0.10;99.90;;;;;;5040464;28;20022;-65
2022/03/07 00:05:29;;;;;;;23.42;9.80;;;0.00;99.90;;;;;;5007858;28;20498;-68
2022/03/07 00:07:54;;;;;;;21.35;8.90;;;0.00;99.90;;;;;;5030239;28;20037;-68
2022/03/07 00:10:20;;;;;;;18.52;8.57;;;0.00;99.90;;;;;;5027438;28;20421;-68
2022/03/07 00:12:46;;;;;;;21.80;9.20;;;-0.10;99.90;;;;;;5022806;28;20052;-68
2022/03/07 00:15:11;;;;;;;18.95;8.43;;;0.00;99.90;;;;;;5019290;28;20459;-69
2022/03/07 00:17:37;;;;;;;22.95;9.80;;;-0.10;99.90;;;;;;5031893;28;20555;-68
2022/03/07 00:20:04;;;;;;;21.40;8.55;;;-0.10;99.90;;;;;;5015266;28;20129;-65
2022/03/07 00:22:30;;;;;;;18.15;8.38;;;-0.10;99.90;;;;;;5016445;28;20049;-68
2022/03/07 00:24:56;;;;;;;18.00;8.63;;;-0.20;99.90;;;;;;5016520;28;20494;-68
2022/03/07 00:27:21;;;;;;;23.25;9.93;;;-0.20;99.90;;;;;;5009931;28;20104;-68
2022/03/07 00:29:47;;;;;;;22.10;8.98;;;-0.20;99.90;;;;;;5009881;28;20033;-68
2022/03/07 00:32:13;;;;;;;21.95;9.30;;;-0.20;99.90;;;;;;5016988;28;20474;-68
2022/03/07 00:34:39;;;;;;;22.50;8.88;;;-0.20;99.90;;;;;;5029836;28;20039;-68
2022/03/07 00:37:05;;;;;;;22.80;8.63;;;-0.30;99.90;;;;;;5010998;28;20044;-64
2022/03/07 00:39:31;;;;;;;20.23;9.00;;;-0.30;99.90;;;;;;5009613;28;20084;-68
2022/03/07 00:41:57;;;;;;;23.33;9.73;;;-0.30;99.90;;;;;;5026073;28;20026;-68
2022/03/07 00:44:22;;;;;;;25.15;9.90;;;-0.30;99.90;;;;;;5027145;28;20037;-69
2022/03/07 00:46:48;;;;;;;21.25;8.63;;;-0.30;99.90;;;;;;5060036;28;20041;-67
2022/03/07 00:49:14;;;;;;;20.70;8.70;;;-0.30;99.90;;;;;;5028351;28;20108;-68
2022/03/07 00:51:39;;;;;;;22.00;9.23;;;-0.20;99.90;;;;;;5026475;28;20033;-68
2022/03/07 00:54:05;;;;;;;22.77;9.45;;;-0.20;99.90;;;;;;5013130;28;20033;-65
2022/03/07 00:56:31;;;;;;;23.75;8.98;;;-0.20;99.90;;;;;;5017918;28;20131;-68
2022/03/07 00:58:56;;;;;;;22.83;9.40;;;-0.20;99.90;;;;;;5018671;28;20040;-68
2022/03/07 01:01:22;;;;;;;21.80;9.07;;;-0.30;99.90;;;;;;5031999;28;20028;-68
2022/03/07 01:03:49;;;;;;;22.50;9.38;;;-0.30;99.90;;;;;;5039681;28;20026;-68
2022/03/07 01:06:15;;;;;;;23.63;9.82;;;-0.30;99.90;;;;;;5019457;28;20068;-68
2022/03/07 01:08:41;;;;;;;25.45;10.18;;;-0.30;99.90;;;;;;5028612;28;20061;-68
2022/03/07 01:11:07;;;;;;;21.92;9.02;;;-0.30;99.90;;;;;;5030111;28;20056;-65
2022/03/07 01:13:32;;;;;;;21.08;9.05;;;-0.30;99.90;;;;;;5021544;28;20123;-67
2022/03/07 01:15:58;;;;;;;23.83;9.65;;;-0.40;99.90;;;;;;5026795;28;20033;-68
2022/03/07 01:18:24;;;;;;;20.83;8.82;;;-0.40;99.90;;;;;;5014885;28;20038;-68
2022/03/07 01:20:49;;;;;;;27.73;10.35;;;-0.40;99.90;;;;;;5028870;28;20032;-68
2022/03/07 01:23:15;;;;;;;25.88;9.90;;;-0.30;99.90;;;;;;5029151;28;20106;-69
2022/03/07 01:25:41;;;;;;;22.73;9.68;;;-0.30;99.90;;;;;;5044519;28;20033;-68
2022/03/07 01:28:07;;;;;;;22.75;9.32;;;-0.20;99.90;;;;;;5023193;28;20040;-65
2022/03/07 01:30:33;;;;;;;25.40;9.73;;;-0.20;99.90;;;;;;5032626;28;20564;-68
2022/03/07 01:32:59;;;;;;;25.10;10.32;;;-0.30;99.90;;;;;;5032602;28;20036;-68
2022/03/07 01:35:25;;;;;;;23.20;9.88;;;-0.30;99.90;;;;;;5032077;28;20092;-68
2022/03/07 01:37:51;;;;;;;22.38;9.80;;;-0.40;99.90;;;;;;5032686;28;20056;-67
2022/03/07 01:40:17;;;;;;;23.67;9.95;;;-0.40;99.90;;;;;;5029538;28;20041;-68
2022/03/07 01:42:42;;;;;;;24.08;9.60;;;-0.50;99.90;;;;;;5033913;28;20752;-69
2022/03/07 01:45:10;;;;;;;21.73;9.63;;;-0.40;99.90;;;;;;5023294;28;20040;-65
2022/03/07 01:47:35;;;;;;;24.75;10.60;;;-0.50;99.90;;;;;;5032310;28;20032;-68
2022/03/07 01:50:01;;;;;;;24.60;10.07;;;-0.40;99.90;;;;;;5031939;28;20037;-68
2022/03/07 01:52:27;;;;;;;28.33;10.50;;;-0.40;99.90;;;;;;5029502;28;20501;-68
2022/03/07 01:54:53;;;;;;;22.80;9.57;;;-0.50;99.90;;;;;;5032506;28;20083;-67
2022/03/07 01:57:19;;;;;;;24.38;10.30;;;-0.60;99.90;;;;;;5027073;28;20041;-68
2022/03/07 01:59:44;;;;;;;24.90;9.95;;;-0.60;99.90;;;;;;5025892;28;20033;-68
2022/03/07 02:02:10;;;;;;;29.73;10.30;;;-0.60;99.90;;;;;;5012097;28;20736;-65
2022/03/07 02:04:39;;;;;;;29.42;10.82;;;-0.60;99.90;;;;;;5012202;28;20029;-67
2022/03/07 02:07:06;;;;;;;27.27;10.90;;;-0.60;99.90;;;;;;5013465;28;20045;-68
2022/03/07 02:09:31;;;;;;;28.23;10.73;;;-0.60;99.90;;;;;;5022520;28;20061;-68
2022/03/07 02:11:57;;;;;;;24.17;10.13;;;-0.70;99.90;;;;;;5017958;28;20524;-68
2022/03/07 02:14:23;;;;;;;28.58;10.48;;;-0.70;99.90;;;;;;5047254;28;20510;-68
2022/03/07 02:16:50;;;;;;;29.65;10.48;;;-0.70;99.90;;;;;;5025643;28;20041;-68
2022/03/07 02:19:16;;;;;;;30.65;11.00;;;-0.70;99.90;;;;;;5029502;28;20044;-68
2022/03/07 02:21:47;;;;;;;29.40;10.40;;;-0.80;99.90;;;;;;5031596;28;20045;-68
2022/03/07 02:24:13;;;;;;;26.35;10.18;;;-0.80;99.90;;;;;;5017491;28;20125;-65
2022/03/07 02:26:39;;;;;;;29.27;10.73;;;-0.70;99.90;;;;;;5014511;28;20029;-67
2022/03/07 02:29:08;;;;;;;25.25;10.57;;;-0.70;99.90;;;;;;5031666;28;20026;-68
2022/03/07 02:31:37;;;;;;;28.73;10.77;;;-0.70;99.90;;;;;;5030497;28;20029;-67
2022/03/07 02:34:04;;;;;;;27.92;10.85;;;-0.80;99.90;;;;;;5030872;28;20033;-68
2022/03/07 02:36:30;;;;;;;28.58;10.25;;;-0.80;99.90;;;;;;5026377;28;20030;-68
2022/03/07 02:38:56;;;;;;;30.63;11.00;;;-0.90;99.90;;;;;;5011845;28;20073;-67
2022/03/07 02:41:22;;;;;;;30.45;11.57;;;-0.90;99.90;;;;;;5013436;28;20057;-67
2022/03/07 02:43:47;;;;;;;27.95;11.63;;;-0.90;99.90;;;;;;5031239;28;20723;-68
2022/03/07 02:46:13;;;;;;;32.08;11.07;;;-0.90;99.90;;;;;;5028801;28;20033;-65
2022/03/07 02:48:39;;;;;;;30.00;11.23;;;-0.90;99.90;;;;;;5013015;28;20025;-68
2022/03/07 02:51:06;;;;;;;31.92;10.57;;;-0.90;99.90;;;;;;5030518;28;20112;-68
2022/03/07 02:53:32;;;;;;;32.13;11.52;;;-0.90;99.90;;;;;;5030456;28;20674;-68
2022/03/07 02:55:58;;;;;;;29.92;11.50;;;-0.90;99.90;;;;;;5030545;28;20143;-67
2022/03/07 02:58:23;;;;;;;34.28;11.88;;;-0.90;99.90;;;;;;5049345;28;20482;-66
2022/03/07 03:00:49;;;;;;;29.48;11.05;;;-0.90;99.90;;;;;;5028831;28;20033;-67
2022/03/07 03:03:15;;;;;;;32.50;11.65;;;-0.90;99.90;;;;;;5031729;28;20037;-64
2022/03/07 03:05:41;;;;;;;29.13;11.25;;;-1.00;99.90;;;;;;5010397;28;20037;-68
2022/03/07 03:08:07;;;;;;;32.30;12.13;;;-0.90;99.90;;;;;;5010062;28;20040;-68
2022/03/07 03:10:33;;;;;;;27.20;11.65;;;-0.90;99.90;;;;;;5020641;28;20057;-68
2022/03/07 03:12:58;;;;;;;30.83;10.98;;;-1.00;99.90;;;;;;5031104;28;20103;-68
2022/03/07 03:15:24;;;;;;;31.05;11.63;;;-1.00;99.90;;;;;;5020116;28;20034;-67
2022/03/07 03:17:50;;;;;;;34.42;11.65;;;-1.00;99.90;;;;;;5030497;28;20033;-66
2022/03/07 03:20:17;;;;;;;28.73;10.73;;;-1.00;99.90;;;;;;5030190;28;20494;-65
2022/03/07 03:22:44;;;;;;;27.40;11.38;;;-1.00;99.90;;;;;;5033945;28;20112;-66
2022/03/07 03:25:11;;;;;;;29.08;11.10;;;-1.10;99.90;;;;;;5038187;28;20036;-66
2022/03/07 03:27:38;;;;;;;30.23;11.18;;;-1.10;99.90;;;;;;5031119;28;20126;-67
2022/03/07 03:30:08;;;;;;;34.60;11.70;;;-1.10;99.90;;;;;;5028911;28;20033;-67
2022/03/07 03:32:34;;;;;;;31.17;11.35;;;-1.10;99.90;;;;;;5029687;28;20045;-67
2022/03/07 03:35:00;;;;;;;27.33;11.15;;;-1.10;99.90;;;;;;5016530;28;20034;-67
2022/03/07 03:37:26;;;;;;;30.92;11.45;;;-1.00;99.90;;;;;;5010314;28;20042;-67
2022/03/07 03:39:52;;;;;;;29.77;11.20;;;-1.00;99.90;;;;;;5030188;28;20037;-67
2022/03/07 03:42:18;;;;;;;29.20;10.98;;;-1.00;99.90;;;;;;5011296;28;20033;-65
2022/03/07 03:44:43;;;;;;;29.00;11.48;;;-1.10;99.90;;;;;;5023173;28;20101;-67
2022/03/07 03:47:09;;;;;;;29.35;10.68;;;-1.10;99.90;;;;;;5028021;28;20080;-67
2022/03/07 03:49:35;;;;;;;32.03;11.38;;;-1.10;99.90;;;;;;5030235;28;20224;-67
2022/03/07 03:52:01;;;;;;;30.10;10.93;;;-1.20;99.90;;;;;;5032896;28;20470;-67
2022/03/07 03:54:27;;;;;;;32.50;11.82;;;-1.10;99.90;;;;;;5027627;28;20033;-68
2022/03/07 03:56:52;;;;;;;25.73;10.50;;;-1.10;99.90;;;;;;5029565;28;20044;-68
2022/03/07 03:59:18;;;;;;;28.45;10.65;;;-1.10;99.90;;;;;;5016969;28;20144;-64
2022/03/07 04:01:47;;;;;;;29.85;10.75;;;-1.10;99.90;;;;;;5028031;28;20374;-67
2022/03/07 04:04:13;;;;;;;27.55;10.75;;;-1.10;99.90;;;;;;5010208;28;20038;-67
2022/03/07 04:06:40;;;;;;;28.75;10.80;;;-1.10;99.90;;;;;;5035624;28;20025;-67
2022/03/07 04:09:16;;;;;;;30.67;10.25;;;-1.20;99.90;;;;;;5010213;28;20510;-67
2022/03/07 04:11:42;;;;;;;28.20;9.95;;;-1.10;99.90;;;;;;5022217;28;20060;-67
2022/03/07 04:14:07;;;;;;;27.30;10.00;;;-1.20;99.90;;;;;;5029821;28;20025;-67
2022/03/07 04:16:35;;;;;;;27.08;10.13;;;-1.20;99.90;;;;;;5026906;28;20065;-67
2022/03/07 04:19:02;;;;;;;28.52;10.48;;;-1.20;99.90;;;;;;5028109;28;20042;-67
2022/03/07 04:21:28;;;;;;;25.15;10.18;;;-1.20;99.90;;;;;;5035815;28;20029;-67
2022/03/07 04:23:54;;;;;;;27.50;9.85;;;-1.20;99.90;;;;;;5035765;28;20045;-67
2022/03/07 04:26:20;;;;;;;26.42;10.38;;;-1.20;99.90;;;;;;5028864;28;20497;-65
2022/03/07 04:28:45;;;;;;;26.23;10.65;;;-1.20;99.90;;;;;;5026523;28;20040;-67
2022/03/07 04:31:11;;;;;;;27.00;10.38;;;-1.20;99.90;;;;;;5029286;28;20482;-67
2022/03/07 04:33:37;;;;;;;29.23;9.95;;;-1.20;99.90;;;;;;5016238;28;20042;-68
2022/03/07 04:36:03;;;;;;;31.15;10.18;;;-1.20;99.90;;;;;;5009763;28;20025;-67
2022/03/07 04:38:29;;;;;;;24.10;9.85;;;-1.20;99.90;;;;;;5026714;28;20047;-68
2022/03/07 04:40:55;;;;;;;25.85;10.45;;;-1.20;99.90;;;;;;5009931;28;20076;-67
2022/03/07 04:43:21;;;;;;;24.98;10.32;;;-1.20;99.90;;;;;;5009136;28;20136;-64
2022/03/07 04:45:47;;;;;;;25.23;10.07;;;-1.20;99.90;;;;;;5008089;28;20033;-68
2022/03/07 04:48:14;;;;;;;25.98;10.13;;;-1.20;99.90;;;;;;5009159;28;20122;-67
2022/03/07 04:50:40;;;;;;;27.45;10.60;;;-1.20;99.90;;;;;;5013588;28;20057;-67
2022/03/07 04:53:07;;;;;;;26.75;10.27;;;-1.20;99.90;;;;;;5029114;28;20037;-68
2022/03/07 04:55:32;;;;;;;25.65;10.68;;;-1.30;99.90;;;;;;5024820;28;20156;-68
2022/03/07 04:57:58;;;;;;;26.25;10.10;;;-1.30;99.90;;;;;;5010127;28;20120;-66
2022/03/07 05:00:23;;;;;;;25.25;10.02;;;-1.40;99.90;;;;;;5026764;28;20041;-64
2022/03/07 05:02:49;;;;;;;28.10;10.10;;;-1.40;99.90;;;;;;5028076;28;20033;-67
2022/03/07 05:05:15;;;;;;;26.45;9.88;;;-1.40;99.90;;;;;;5028390;28;20032;-68
2022/03/07 05:07:40;;;;;;;23.38;9.00;;;-1.40;99.90;;;;;;5026724;28;20021;-67
2022/03/07 05:10:07;;;;;;;29.10;10.00;;;-1.40;99.90;;;;;;5028290;28;20037;-66
2022/03/07 05:12:32;;;;;;;29.88;10.63;;;-1.50;99.90;;;;;;5024700;28;20026;-66
2022/03/07 05:14:58;;;;;;;25.95;10.32;;;-1.50;99.90;;;;;;5025708;28;20033;-67
2022/03/07 05:17:24;;;;;;;28.92;10.50;;;-1.50;99.90;;;;;;5032404;28;20083;-65
2022/03/07 05:19:50;;;;;;;28.45;10.32;;;-1.50;99.90;;;;;;5028772;28;20029;-66
2022/03/07 05:22:17;;;;;;;29.63;10.55;;;-1.50;99.90;;;;;;5028719;28;20124;-67
2022/03/07 05:24:43;;;;;;;29.55;10.20;;;-1.50;99.90;;;;;;5041283;28;20060;-67
2022/03/07 05:27:08;;;;;;;31.85;11.18;;;-1.50;99.90;;;;;;5027325;28;20114;-67
2022/03/07 05:29:34;;;;;;;26.67;9.82;;;-1.40;99.90;;;;;;5027663;28;20438;-67
2022/03/07 05:32:00;;;;;;;25.88;10.38;;;-1.40;99.90;;;;;;5028567;28;20037;-67
2022/03/07 05:34:26;;;;;;;31.77;10.77;;;-1.30;99.90;;;;;;5027950;28;20029;-66
2022/03/07 05:36:52;;;;;;;33.45;11.65;;;-1.30;99.90;;;;;;5026949;28;20030;-68
2022/03/07 05:39:18;;;;;;;28.08;10.48;;;-1.30;99.90;;;;;;5034965;28;20033;-68
2022/03/07 05:41:44;;;;;;;33.35;10.88;;;-1.40;99.90;;;;;;5027796;28;20049;-66
2022/03/07 05:44:09;;;;;;;28.95;11.38;;;-1.40;99.90;;;;;;5028715;28;20065;-67
2022/03/07 05:46:35;;;;;;;29.38;10.95;;;-1.40;99.90;;;;;;5026346;28;20088;-67
2022/03/07 05:49:02;;;;;;;26.92;10.85;;;-1.40;99.90;;;;;;5028151;28;20091;-66
2022/03/07 05:51:27;;;;;;;29.23;11.23;;;-1.40;99.90;;;;;;5027111;28;20084;-68
2022/03/07 05:53:53;;;;;;;29.98;10.40;;;-1.40;99.90;;;;;;5026956;28;20437;-70
2022/03/07 05:56:19;;;;;;;33.25;11.27;;;-1.50;99.90;;;;;;5028147;28;20063;-69
2022/03/07 05:58:46;;;;;;;34.05;11.93;;;-1.50;99.90;;;;;;5041340;28;20612;-66
2022/03/07 06:01:13;;;;;;;31.90;11.60;;;-1.60;99.90;;;;;;5027989;28;20032;-67
2022/03/07 06:03:38;;;;;;;29.95;10.90;;;-1.50;99.90;;;;;;5032904;28;20591;-67
2022/03/07 06:06:04;;;;;;;26.25;9.27;;;-1.50;99.90;;;;;;5023619;28;20033;-68
2022/03/07 06:08:30;;;;;;;29.15;10.60;;;-1.60;99.90;;;;;;5027147;28;20026;-67
2022/03/07 06:10:56;;;;;;;33.67;11.70;;;-1.60;99.90;;;;;;5016886;28;20484;-67
2022/03/07 06:13:21;;;;;;;28.30;10.45;;;-1.50;99.90;;;;;;5012533;28;20036;-67
2022/03/07 06:15:47;;;;;;;32.65;11.75;;;-1.50;99.90;;;;;;5027244;28;20885;-66
2022/03/07 06:18:13;;;;;;;29.35;9.88;;;-1.50;99.90;;;;;;5013532;28;20041;-67
2022/03/07 06:20:39;;;;;;;33.63;11.55;;;-1.50;99.90;;;;;;5011351;28;20050;-65
2022/03/07 06:23:05;;;;;;;28.63;11.60;;;-1.50;99.90;;;;;;5012190;28;20498;-66
2022/03/07 06:25:33;;;;;;;34.15;10.55;;;-1.60;99.90;;;;;;5025763;28;20034;-66
2022/03/07 06:28:00;;;;;;;31.92;11.57;;;-1.60;99.90;;;;;;5012101;28;20098;-67
2022/03/07 06:30:26;;;;;;;33.35;12.68;;;-1.50;99.90;;;;;;5026123;28;20060;-64
2022/03/07 06:32:53;;;;;;;33.33;11.68;;;-1.50;99.90;;;;;;5031558;28;20053;-68
2022/03/07 06:35:18;;;;;;;31.00;12.30;;;-1.50;99.90;;;;;;5030828;28;20037;-68
2022/03/07 06:37:48;;;;;;;31.13;12.43;;;-1.50;99.90;;;;;;5016262;28;20040;-67
2022/03/07 06:40:14;;;;;;;29.80;10.10;;;-1.50;99.90;;;;;;5020703;28;20041;-66
2022/03/07 06:42:40;;;;;;;39.75;13.05;;;-1.50;99.90;;;;;;5028107;28;20057;-66
2022/03/07 06:45:06;;;;;;;32.45;11.80;;;-1.50;99.90;;;;;;5032074;28;20061;-67
2022/03/07 06:47:32;;;;;;;34.13;12.90;;;-1.50;99.90;;;;;;5009134;28;20363;-66
2022/03/07 06:49:58;;;;;;;35.08;12.20;;;-1.50;99.90;;;;;;5028203;28;20136;-66
2022/03/07 06:52:25;;;;;;;36.95;13.38;;;-1.40;99.90;;;;;;5034136;28;20037;-66
2022/03/07 06:54:51;;;;;;;36.30;12.50;;;-1.30;99.90;;;;;;5041601;28;20103;-66
2022/03/07 06:57:21;;;;;;;34.95;12.88;;;-1.30;99.90;;;;;;5031649;28;20041;-65
2022/03/07 06:59:48;;;;;;;35.40;12.45;;;-1.30;99.90;;;;;;5026710;28;20029;-65
2022/03/07 07:02:14;;;;;;;37.13;12.60;;;-1.30;99.90;;;;;;5033462;28;20034;-64
2022/03/07 07:04:40;;;;;;;33.30;13.45;;;-1.20;99.90;;;;;;5038629;28;20082;-64
2022/03/07 07:07:05;;;;;;;30.98;11.82;;;-1.10;99.90;;;;;;5029602;28;20056;-65
2022/03/07 07:09:31;;;;;;;31.65;12.05;;;-1.10;99.90;;;;;;5029792;28;20049;-64
2022/03/07 07:11:57;;;;;;;28.50;11.15;;;-0.90;99.90;;;;;;5016932;28;20108;-65
2022/03/07 07:14:23;;;;;;;31.75;12.15;;;-0.90;99.90;;;;;;5024146;28;20060;-65
2022/03/07 07:16:49;;;;;;;36.92;14.10;;;-0.90;99.90;;;;;;5028130;28;20501;-64
2022/03/07 07:19:15;;;;;;;37.83;12.40;;;-0.80;99.90;;;;;;5029714;28;20030;-63
2022/03/07 07:21:40;;;;;;;29.20;10.43;;;-0.70;99.90;;;;;;5028433;28;20036;-63
2022/03/07 07:24:07;;;;;;;30.83;11.40;;;-0.80;99.90;;;;;;5019283;28;20060;-64
2022/03/07 07:26:33;;;;;;;30.52;12.70;;;-0.90;99.90;;;;;;5022988;28;20107;-63
2022/03/07 07:28:59;;;;;;;26.58;10.15;;;-0.80;99.90;;;;;;5028212;28;20038;-65
2022/03/07 07:31:25;;;;;;;29.88;10.93;;;-0.80;99.90;;;;;;5029123;28;20523;-66
2022/03/07 07:33:51;;;;;;;29.00;10.27;;;-0.80;99.90;;;;;;5029922;28;20022;-66
2022/03/07 07:36:17;;;;;;;28.50;11.00;;;-0.70;99.90;;;;;;5030837;28;20056;-66
2022/03/07 07:38:42;;;;;;;31.30;10.93;;;-0.60;99.90;;;;;;5030089;28;20034;-66
2022/03/07 07:41:08;;;;;;;27.42;10.57;;;-0.50;99.90;;;;;;5030516;28;20037;-66
2022/03/07 07:43:34;;;;;;;31.55;12.07;;;-0.40;99.90;;;;;;5040056;28;20032;-65
2022/03/07 07:45:59;;;;;;;30.17;11.15;;;-0.40;99.90;;;;;;5050651;28;20029;-66
2022/03/07 07:48:25;;;;;;;30.90;11.27;;;-0.60;99.90;;;;;;5050357;28;20027;-66
2022/03/07 07:50:51;;;;;;;33.08;11.73;;;-0.70;99.90;;;;;;5049579;28;20607;-66
2022/03/07 07:53:17;;;;;;;30.35;10.25;;;-0.70;99.90;;;;;;5048857;28;20458;-66
2022/03/07 07:55:43;;;;;;;29.38;11.63;;;-0.60;99.90;;;;;;5047264;28;20513;-67
2022/03/07 07:58:08;;;;;;;28.52;11.38;;;-0.60;99.90;;;;;;5049778;28;20047;-66
2022/03/07 08:00:34;;;;;;;36.22;11.82;;;-0.40;99.90;;;;;;5049410;28;20029;-65
2022/03/07 08:03:00;;;;;;;26.50;9.73;;;-0.40;99.90;;;;;;5050090;28;20053;-63
2022/03/07 08:05:26;;;;;;;31.23;11.30;;;-0.50;99.90;;;;;;5049736;28;20032;-67
2022/03/07 08:07:51;;;;;;;32.45;11.63;;;-0.30;99.90;;;;;;5047632;28;20033;-66
2022/03/07 08:10:18;;;;;;;31.63;11.88;;;-0.30;99.90;;;;;;5030566;28;20032;-66
2022/03/07 08:12:44;;;;;;;30.02;10.95;;;-0.20;99.90;;;;;;5029058;28;20038;-66
2022/03/07 08:15:13;;;;;;;26.70;10.23;;;0.00;99.90;;;;;;5011525;28;20021;-66
2022/03/07 08:17:46;;;;;;;32.30;11.10;;;0.00;99.90;;;;;;5028527;28;20044;-65
2022/03/07 08:20:13;;;;;;;26.98;10.70;;;0.00;99.90;;;;;;5037199;28;20069;-65
2022/03/07 08:22:40;;;;;;;29.35;10.20;;;0.00;99.90;;;;;;5039329;28;20049;-65
2022/03/07 08:25:06;;;;;;;30.17;10.40;;;-0.10;99.90;;;;;;5029019;28;20081;-65
2022/03/07 08:27:34;;;;;;;25.30;10.13;;;-0.30;99.90;;;;;;5029482;28;20056;-65
2022/03/07 08:30:00;;;;;;;29.67;12.07;;;-0.40;99.90;;;;;;5028636;28;20025;-66
2022/03/07 08:32:26;;;;;;;42.13;14.82;;;-0.50;99.90;;;;;;5027911;28;20478;-65
2022/03/07 08:34:52;;;;;;;30.75;11.50;;;-0.50;99.90;;;;;;5027827;28;20041;-65
2022/03/07 08:37:18;;;;;;;24.70;10.05;;;-0.70;99.90;;;;;;5035530;28;20045;-65
2022/03/07 08:39:44;;;;;;;27.88;9.85;;;-0.80;99.90;;;;;;5030196;28;20025;-67
2022/03/07 08:42:09;;;;;;;29.58;11.15;;;-0.60;99.90;;;;;;5010027;28;20471;-66
2022/03/07 08:44:35;;;;;;;25.40;9.32;;;-0.40;99.90;;;;;;5028743;28;20026;-64
2022/03/07 08:47:01;;;;;;;23.80;9.40;;;0.00;99.90;;;;;;5027814;28;20037;-66
2022/03/07 08:49:27;;;;;;;25.80;9.57;;;0.20;99.90;;;;;;5029739;28;20026;-66
2022/03/07 08:51:52;;;;;;;24.60;9.77;;;0.40;99.90;;;;;;5029348;28;20717;-67
2022/03/07 08:54:18;;;;;;;25.67;9.82;;;0.80;99.90;;;;;;5029122;28;20391;-66
2022/03/07 08:56:44;;;;;;;24.08;8.65;;;0.80;99.90;;;;;;5028286;28;20389;-64
2022/03/07 08:59:10;;;;;;;22.50;8.75;;;1.20;99.90;;;;;;5030038;28;20522;-66
2022/03/07 09:01:36;;;;;;;23.85;8.95;;;1.30;99.90;;;;;;5028236;28;20117;-64
2022/03/07 09:04:03;;;;;;;23.30;9.18;;;1.10;99.90;;;;;;5028867;28;20041;-66
2022/03/07 09:06:29;;;;;;;26.08;9.90;;;1.10;99.90;;;;;;5029243;28;20067;-66
2022/03/07 09:08:56;;;;;;;29.23;10.60;;;1.20;99.90;;;;;;5028233;28;20057;-66
2022/03/07 09:11:22;;;;;;;23.48;9.75;;;1.00;99.90;;;;;;5028939;28;20064;-67
2022/03/07 09:13:48;;;;;;;24.25;9.45;;;1.00;99.90;;;;;;5029459;28;20029;-67
2022/03/07 09:16:14;;;;;;;22.73;9.02;;;0.90;99.90;;;;;;5029010;28;20130;-66
2022/03/07 09:18:41;;;;;;;22.98;9.52;;;1.10;99.90;;;;;;5028294;28;20083;-65
2022/03/07 09:21:07;;;;;;;23.58;9.45;;;1.30;99.90;;;;;;5029361;28;20032;-65
2022/03/07 09:23:37;;;;;;;27.48;9.85;;;1.30;99.90;;;;;;5034937;28;20561;-66
2022/03/07 09:26:05;;;;;;;17.92;7.47;;;1.20;99.90;;;;;;5048727;28;20028;-67
2022/03/07 09:28:31;;;;;;;24.15;9.85;;;1.00;99.90;;;;;;5048893;28;20029;-67
2022/03/07 09:30:57;;;;;;;24.23;9.65;;;1.00;99.90;;;;;;5048152;28;20025;-67
2022/03/07 09:33:24;;;;;;;23.33;9.73;;;1.20;99.90;;;;;;5048636;28;20430;-67
2022/03/07 09:35:50;;;;;;;23.08;9.55;;;1.40;99.90;;;;;;5030653;28;20056;-67
2022/03/07 09:38:16;;;;;;;26.77;10.52;;;1.70;99.90;;;;;;5049018;28;20560;-67
2022/03/07 09:40:42;;;;;;;26.20;10.82;;;1.70;99.60;;;;;;5048335;28;20075;-67
2022/03/07 09:43:08;;;;;;;22.48;9.52;;;1.90;99.00;;;;;;5048764;28;20042;-67
2022/03/07 09:45:35;;;;;;;24.85;10.23;;;1.80;95.20;;;;;;5050074;28;20469;-66
2022/03/07 09:48:01;;;;;;;29.73;11.95;;;1.50;96.50;;;;;;5051816;28;20228;-66
2022/03/07 09:50:27;;;;;;;25.38;10.15;;;1.70;96.60;;;;;;5049538;28;20041;-67
2022/03/07 09:52:55;;;;;;;24.85;10.80;;;1.70;95.00;;;;;;5032042;28;20112;-67
2022/03/07 09:55:22;;;;;;;23.90;9.88;;;1.90;95.90;;;;;;5032201;28;20034;-67
2022/03/07 09:57:49;;;;;;;25.15;10.10;;;1.90;94.00;;;;;;5031519;28;20040;-67
2022/03/07 10:00:17;;;;;;;20.85;9.35;;;2.00;93.90;;;;;;5032367;28;20466;-67
2022/03/07 10:03:00;;;;;;;27.08;10.20;;;2.20;93.50;;;;;;5031500;28;20698;-67
2022/03/07 10:05:32;;;;;;;22.88;9.30;;;2.10;93.30;;;;;;5035269;28;20028;-67
2022/03/07 10:07:58;;;;;;;24.48;10.27;;;2.30;92.40;;;;;;5051978;28;20840;-67
2022/03/07 10:10:32;;;;;;;24.80;11.07;;;2.00;90.90;;;;;;5052181;28;20037;-66
2022/03/07 10:13:09;;;;;;;21.42;9.63;;;1.90;92.70;;;;;;5051501;28;20029;-67
2022/03/07 10:15:36;;;;;;;25.63;10.35;;;2.00;90.80;;;;;;5050843;28;20464;-67
2022/03/07 10:18:02;;;;;;;23.73;9.60;;;2.20;90.80;;;;;;5051236;28;20037;-66
2022/03/07 10:20:28;;;;;;;24.73;10.20;;;2.30;88.20;;;;;;5046312;28;20024;-67
2022/03/07 10:23:03;;;;;;;24.17;10.90;;;2.30;89.90;;;;;;5031257;28;20394;-67
2022/03/07 10:25:32;;;;;;;29.83;11.93;;;2.40;88.40;;;;;;5032023;28;20115;-67
2022/03/07 10:28:01;;;;;;;29.30;11.23;;;2.60;86.30;;;;;;5031140;28;20040;-66
2022/03/07 10:30:30;;;;;;;26.65;10.93;;;2.20;82.90;;;;;;5031472;28;20100;-66
2022/03/07 10:33:01;;;;;;;23.58;11.45;;;1.80;85.70;;;;;;5029821;28;20379;-66
2022/03/07 10:35:28;;;;;;;26.17;10.27;;;1.80;88.10;;;;;;5038907;28;20028;-66
2022/03/07 10:38:09;;;;;;;28.77;10.85;;;1.50;85.50;;;;;;5051066;28;20054;-66
2022/03/07 10:40:36;;;;;;;22.58;10.43;;;1.10;87.10;;;;;;5038084;28;20100;-65
2022/03/07 10:43:04;;;;;;;26.08;10.45;;;1.10;89.10;;;;;;5031015;28;20037;-66
2022/03/07 10:45:31;;;;;;;24.98;10.57;;;1.50;89.00;;;;;;5031727;28;20040;-66
2022/03/07 10:48:03;;;;;;;23.63;9.82;;;1.80;86.50;;;;;;5030933;28;20056;-65
2022/03/07 10:50:30;;;;;;;25.23;10.40;;;1.80;84.70;;;;;;5031694;28;20038;-65
2022/03/07 10:53:02;;;;;;;24.60;10.90;;;2.00;85.20;;;;;;5030684;28;20029;-65
2022/03/07 10:55:29;;;;;;;25.55;10.07;;;2.60;87.00;;;;;;5045320;28;20040;-66
2022/03/07 10:58:06;;;;;;;27.15;10.93;;;3.10;82.20;;;;;;5049187;28;20033;-65
2022/03/07 11:00:32;;;;;;;24.52;11.02;;;2.90;76.60;;;;;;5051263;28;20028;-66
2022/03/07 11:02:58;;;;;;;25.38;10.57;;;3.00;78.00;;;;;;5050479;28;20036;-65
2022/03/07 11:05:25;;;;;;;25.38;10.90;;;3.20;78.70;;;;;;5049721;28;20032;-66
2022/03/07 11:07:50;;;;;;;28.75;11.25;;;3.40;76.70;;;;;;5050342;28;20111;-67
2022/03/07 11:10:17;;;;;;;30.75;11.80;;;3.10;75.20;;;;;;5036118;28;20072;-65
2022/03/07 11:12:43;;;;;;;27.17;11.18;;;2.50;76.70;;;;;;5030964;28;20112;-64
2022/03/07 11:15:10;;;;;;;27.20;11.25;;;2.00;78.60;;;;;;5030864;28;20071;-66
2022/03/07 11:17:41;;;;;;;26.30;11.20;;;1.90;79.90;;;;;;5030929;28;20395;-66
2022/03/07 11:20:10;;;;;;;31.73;11.70;;;1.90;79.90;;;;;;5030729;28;20061;-66
2022/03/07 11:22:36;;;;;;;26.00;11.07;;;2.00;82.10;;;;;;5037603;28;20128;-66
2022/03/07 11:25:04;;;;;;;22.55;10.82;;;2.20;80.80;;;;;;5043833;28;20040;-65
2022/03/07 11:27:33;;;;;;;24.33;10.68;;;2.30;80.30;;;;;;5050888;28;20061;-66
2022/03/07 11:29:59;;;;;;;30.90;11.50;;;2.20;79.90;;;;;;5040819;28;20088;-66
2022/03/07 11:32:25;;;;;;;28.50;12.30;;;2.30;79.10;;;;;;5030550;28;20367;-66
2022/03/07 11:35:03;;;;;;;27.27;12.52;;;2.10;79.20;;;;;;5030239;28;20037;-66
2022/03/07 11:37:31;;;;;;;27.90;12.20;;;2.30;81.60;;;;;;5030720;28;20040;-66
2022/03/07 11:39:58;;;;;;;26.63;11.32;;;2.20;80.00;;;;;;5029832;28;20045;-66
2022/03/07 11:42:33;;;;;;;25.77;11.05;;;2.10;80.40;;;;;;5030495;28;20375;-66
2022/03/07 11:45:16;;;;;;;27.05;11.07;;;2.40;80.90;;;;;;5040477;28;20113;-66
2022/03/07 11:47:42;;;;;;;23.13;10.85;;;3.10;79.40;;;;;;5048244;28;20048;-66
2022/03/07 11:50:09;;;;;;;26.75;11.75;;;3.60;76.50;;;;;;5049656;28;20021;-65
2022/03/07 11:52:35;;;;;;;29.60;11.80;;;4.00;71.50;;;;;;5050260;28;20124;-66
2022/03/07 11:55:12;;;;;;;26.73;11.32;;;4.30;73.70;;;;;;5049183;28;20429;-65
2022/03/07 11:57:42;;;;;;;25.52;11.20;;;4.00;67.70;;;;;;5049900;28;20375;-66
2022/03/07 12:00:24;;;;;;;33.70;13.32;;;3.80;68.50;;;;;;5049462;28;20021;-67
2022/03/07 12:02:52;;;;;;;31.35;13.25;;;3.80;69.40;;;;;;5041614;28;20041;-66
2022/03/07 12:05:22;;;;;;;27.05;11.27;;;3.50;69.20;;;;;;5030209;28;20021;-66
2022/03/07 12:07:48;;;;;;;23.50;10.43;;;3.30;69.00;;;;;;5036897;28;20033;-64
2022/03/07 12:10:14;;;;;;;24.80;11.35;;;2.90;69.90;;;;;;5049589;28;20063;-65
2022/03/07 12:12:40;;;;;;;27.65;11.93;;;2.70;71.90;;;;;;5050060;28;20057;-66
2022/03/07 12:15:11;;;;;;;29.15;11.95;;;2.60;72.60;;;;;;5048908;28;20371;-66
2022/03/07 12:17:37;;;;;;;26.38;11.68;;;3.00;71.90;;;;;;5049881;28;20037;-66
2022/03/07 12:20:04;;;;;;;30.35;11.75;;;3.40;70.70;;;;;;5047802;28;20056;-66
2022/03/07 12:22:32;;;;;;;26.73;11.23;;;3.80;69.40;;;;;;5049606;28;20128;-65
2022/03/07 12:24:59;;;;;;;27.40;12.05;;;3.60;68.00;;;;;;5035751;28;20103;-65
2022/03/07 12:27:26;;;;;;;23.23;10.77;;;3.70;68.00;;;;;;5030187;28;20454;-65
2022/03/07 12:29:52;;;;;;;28.38;11.73;;;3.70;66.40;;;;;;5029226;28;20065;-64